SWA1550 KMDW-KPIT
Flight info
| Callsign | SWA1550 |
|---|---|
| Flight time | 0h 54m |
| Altitude | 39000 |
| Route | LEWKE GIJ OTENS ANEWA DJB GRIVY JESEY5 |
| Aircraft | B738/M-SADE2E3GIJ4RWZ/LB1D1 |
Departure
| Time | 2026-05-07 02:20 |
|---|---|
| Airport | Chicago Midway International Airport (KMDW) |
Arrival
| Time | 2026-05-07 03:14 |
|---|---|
| Airport | Pittsburgh International Airport (KPIT) |
| Time | Latitude | Longitude | Altitude | Speed | Heading |
|---|---|---|---|---|---|
| 2026-05-07 02:03 | 41.78837 | -87.74422 | 618 ft | 0 kts | 120° |
| 2026-05-07 02:06 | 41.78837 | -87.74423 | 618 ft | 1 kts | 120° |
| 2026-05-07 02:07 | 41.78844 | -87.74440 | 618 ft | 3 kts | 120° |
| 2026-05-07 02:07 | 41.78865 | -87.74487 | 628 ft | 3 kts | 120° |
| 2026-05-07 02:07 | 41.78869 | -87.74498 | 625 ft | 5 kts | 120° |
| 2026-05-07 02:11 | 41.78869 | -87.74497 | 618 ft | 1 kts | 121° |
| 2026-05-07 02:12 | 41.78868 | -87.74495 | 618 ft | 0 kts | 125° |
| 2026-05-07 02:14 | 41.78867 | -87.74494 | 618 ft | 1 kts | 133° |
| 2026-05-07 02:14 | 41.78859 | -87.74494 | 629 ft | 2 kts | 188° |
| 2026-05-07 02:15 | 41.78844 | -87.74517 | 627 ft | 5 kts | 240° |
| 2026-05-07 02:15 | 41.78836 | -87.74571 | 621 ft | 7 kts | 271° |
| 2026-05-07 02:15 | 41.78821 | -87.74628 | 622 ft | 6 kts | 232° |
| 2026-05-07 02:15 | 41.78793 | -87.74667 | 622 ft | 6 kts | 224° |
| 2026-05-07 02:16 | 41.78756 | -87.74714 | 626 ft | 8 kts | 224° |
| 2026-05-07 02:16 | 41.78716 | -87.74764 | 615 ft | 2 kts | 221° |
| 2026-05-07 02:16 | 41.78703 | -87.74775 | 619 ft | 3 kts | 208° |
| 2026-05-07 02:16 | 41.78636 | -87.74824 | 623 ft | 18 kts | 217° |
| 2026-05-07 02:17 | 41.78539 | -87.74945 | 620 ft | 20 kts | 223° |
| 2026-05-07 02:17 | 41.78440 | -87.75067 | 619 ft | 12 kts | 223° |
| 2026-05-07 02:17 | 41.78437 | -87.75071 | 621 ft | 0 kts | 224° |
| 2026-05-07 02:17 | 41.78428 | -87.75083 | 617 ft | 4 kts | 225° |
| 2026-05-07 02:18 | 41.78393 | -87.75128 | 625 ft | 14 kts | 223° |
| 2026-05-07 02:18 | 41.78313 | -87.75186 | 622 ft | 9 kts | 146° |
| 2026-05-07 02:18 | 41.78254 | -87.75106 | 625 ft | 18 kts | 133° |
| 2026-05-07 02:18 | 41.78200 | -87.74979 | 620 ft | 13 kts | 88° |
| 2026-05-07 02:19 | 41.78205 | -87.74803 | 618 ft | 2 kts | 88° |
| 2026-05-07 02:19 | 41.78230 | -87.74783 | 623 ft | 11 kts | 351° |
| 2026-05-07 02:19 | 41.78333 | -87.74943 | 626 ft | 55 kts | 311° |
| 2026-05-07 02:19 | 41.78782 | -87.75576 | 615 ft | 131 kts | 314° |
| 2026-05-07 02:20 | 41.79511 | -87.76583 | 1088 ft | 155 kts | 313° |
| 2026-05-07 02:20 | 41.80265 | -87.77622 | 2109 ft | 153 kts | 313° |
| 2026-05-07 02:20 | 41.81003 | -87.78606 | 3217 ft | 147 kts | 314° |
| 2026-05-07 02:20 | 41.81734 | -87.79577 | 4033 ft | 157 kts | 314° |
| 2026-05-07 02:21 | 41.82601 | -87.80723 | 4384 ft | 192 kts | 314° |
| 2026-05-07 02:21 | 41.83682 | -87.82009 | 4634 ft | 227 kts | 329° |
| 2026-05-07 02:21 | 41.85314 | -87.82353 | 5172 ft | 255 kts | 8° |
| 2026-05-07 02:21 | 41.86899 | -87.81162 | 6070 ft | 275 kts | 42° |
| 2026-05-07 02:22 | 41.87796 | -87.78829 | 7007 ft | 294 kts | 77° |
| 2026-05-07 02:22 | 41.87777 | -87.76071 | 8097 ft | 299 kts | 96° |
| 2026-05-07 02:22 | 41.87383 | -87.73310 | 9122 ft | 305 kts | 102° |
| 2026-05-07 02:22 | 41.86863 | -87.70532 | 10129 ft | 311 kts | 105° |
| 2026-05-07 02:23 | 41.86137 | -87.67689 | 10588 ft | 336 kts | 111° |
| 2026-05-07 02:23 | 41.85314 | -87.64652 | 11081 ft | 355 kts | 108° |
| 2026-05-07 02:23 | 41.84697 | -87.61392 | 11900 ft | 364 kts | 102° |
| 2026-05-07 02:23 | 41.84193 | -87.58027 | 12750 ft | 372 kts | 101° |
| 2026-05-07 02:24 | 41.83705 | -87.54576 | 13603 ft | 380 kts | 101° |
| 2026-05-07 02:24 | 41.83200 | -87.51055 | 14375 ft | 388 kts | 102° |
| 2026-05-07 02:24 | 41.82672 | -87.47478 | 15178 ft | 394 kts | 102° |
| 2026-05-07 02:24 | 41.82125 | -87.43865 | 15988 ft | 399 kts | 103° |
| 2026-05-07 02:25 | 41.81557 | -87.40191 | 16787 ft | 405 kts | 103° |
| 2026-05-07 02:25 | 41.80975 | -87.36467 | 17559 ft | 411 kts | 104° |
| 2026-05-07 02:25 | 41.80380 | -87.32680 | 18338 ft | 418 kts | 104° |
| 2026-05-07 02:25 | 41.79769 | -87.28816 | 18823 ft | 430 kts | 105° |
| 2026-05-07 02:26 | 41.79154 | -87.24852 | 19386 ft | 439 kts | 103° |
| 2026-05-07 02:26 | 41.78671 | -87.20775 | 20028 ft | 446 kts | 101° |
| 2026-05-07 02:26 | 41.78285 | -87.16616 | 20641 ft | 454 kts | 99° |
| 2026-05-07 02:26 | 41.77931 | -87.12371 | 21231 ft | 462 kts | 99° |
| 2026-05-07 02:27 | 41.77583 | -87.08119 | 21806 ft | 469 kts | 99° |
| 2026-05-07 02:27 | 41.77216 | -87.03748 | 22393 ft | 476 kts | 100° |
| 2026-05-07 02:27 | 41.76828 | -86.99305 | 22959 ft | 483 kts | 100° |
| 2026-05-07 02:27 | 41.76422 | -86.94806 | 23520 ft | 489 kts | 101° |
| 2026-05-07 02:28 | 41.76000 | -86.90247 | 23977 ft | 496 kts | 101° |
| 2026-05-07 02:28 | 41.75569 | -86.85653 | 24500 ft | 500 kts | 101° |
| 2026-05-07 02:28 | 41.75131 | -86.81022 | 25043 ft | 503 kts | 101° |
| 2026-05-07 02:28 | 41.74687 | -86.76359 | 25566 ft | 507 kts | 101° |
| 2026-05-07 02:29 | 41.74235 | -86.71639 | 26054 ft | 511 kts | 101° |
| 2026-05-07 02:29 | 41.73779 | -86.66894 | 26539 ft | 516 kts | 102° |
| 2026-05-07 02:29 | 41.73318 | -86.62116 | 26994 ft | 520 kts | 102° |
| 2026-05-07 02:29 | 41.72852 | -86.57296 | 27459 ft | 524 kts | 102° |
| 2026-05-07 02:30 | 41.72381 | -86.52440 | 27921 ft | 528 kts | 102° |
| 2026-05-07 02:30 | 41.71904 | -86.47554 | 28366 ft | 530 kts | 102° |
| 2026-05-07 02:30 | 41.71424 | -86.42645 | 28847 ft | 533 kts | 102° |
| 2026-05-07 02:30 | 41.70938 | -86.37704 | 29244 ft | 538 kts | 102° |
| 2026-05-07 02:31 | 41.70451 | -86.32781 | 29616 ft | 543 kts | 102° |
| 2026-05-07 02:31 | 41.69952 | -86.27762 | 30018 ft | 546 kts | 102° |
| 2026-05-07 02:31 | 41.69447 | -86.22698 | 30347 ft | 550 kts | 102° |
| 2026-05-07 02:31 | 41.68937 | -86.17605 | 30687 ft | 553 kts | 102° |
| 2026-05-07 02:32 | 41.68590 | -86.14150 | 30914 ft | 555 kts | 102° |
| 2026-05-07 02:32 | 41.68078 | -86.09086 | 31238 ft | 557 kts | 102° |
| 2026-05-07 02:32 | 41.67556 | -86.03932 | 31543 ft | 560 kts | 102° |
| 2026-05-07 02:32 | 41.67029 | -85.98760 | 31841 ft | 563 kts | 102° |
| 2026-05-07 02:33 | 41.66496 | -85.93557 | 32140 ft | 566 kts | 102° |
| 2026-05-07 02:33 | 41.65959 | -85.88330 | 32501 ft | 567 kts | 103° |
| 2026-05-07 02:33 | 41.65421 | -85.83107 | 32963 ft | 566 kts | 103° |
| 2026-05-07 02:33 | 41.64884 | -85.77913 | 33416 ft | 564 kts | 103° |
| 2026-05-07 02:34 | 41.64342 | -85.72711 | 33812 ft | 565 kts | 103° |
| 2026-05-07 02:34 | 41.63797 | -85.67507 | 34144 ft | 565 kts | 103° |
| 2026-05-07 02:34 | 41.63250 | -85.62303 | 34488 ft | 565 kts | 103° |
| 2026-05-07 02:34 | 41.62702 | -85.57110 | 34888 ft | 563 kts | 103° |
| 2026-05-07 02:35 | 41.62154 | -85.51941 | 35297 ft | 561 kts | 103° |
| 2026-05-07 02:35 | 41.61606 | -85.46795 | 35668 ft | 559 kts | 103° |
| 2026-05-07 02:35 | 41.61055 | -85.41647 | 35991 ft | 559 kts | 103° |
| 2026-05-07 02:35 | 41.60503 | -85.36515 | 36268 ft | 560 kts | 103° |
| 2026-05-07 02:36 | 41.59945 | -85.31362 | 36589 ft | 559 kts | 103° |
| 2026-05-07 02:36 | 41.59388 | -85.26226 | 36935 ft | 559 kts | 103° |
| 2026-05-07 02:36 | 41.58829 | -85.21091 | 37269 ft | 558 kts | 103° |
| 2026-05-07 02:36 | 41.58276 | -85.16038 | 37609 ft | 557 kts | 103° |
| 2026-05-07 02:37 | 41.57707 | -85.10856 | 37966 ft | 555 kts | 103° |
| 2026-05-07 02:37 | 41.57154 | -85.05837 | 38331 ft | 553 kts | 103° |
| 2026-05-07 02:37 | 41.56593 | -85.00763 | 38671 ft | 552 kts | 104° |
| 2026-05-07 02:37 | 41.56030 | -84.95699 | 38930 ft | 551 kts | 104° |
| 2026-05-07 02:38 | 41.54889 | -84.85528 | 39012 ft | 557 kts | 104° |
| 2026-05-07 02:38 | 41.53731 | -84.75282 | 39011 ft | 557 kts | 104° |
| 2026-05-07 02:39 | 41.52571 | -84.65062 | 38991 ft | 556 kts | 104° |
| 2026-05-07 02:39 | 41.51402 | -84.54860 | 38999 ft | 556 kts | 104° |
| 2026-05-07 02:40 | 41.50223 | -84.44662 | 39004 ft | 555 kts | 104° |
| 2026-05-07 02:40 | 41.49044 | -84.34545 | 39009 ft | 555 kts | 104° |
| 2026-05-07 02:41 | 41.47848 | -84.24365 | 38992 ft | 556 kts | 104° |
| 2026-05-07 02:41 | 41.46640 | -84.14171 | 39007 ft | 557 kts | 104° |
| 2026-05-07 02:42 | 41.45421 | -84.03955 | 39010 ft | 558 kts | 105° |
| 2026-05-07 02:42 | 41.44190 | -83.93717 | 39004 ft | 560 kts | 105° |
| 2026-05-07 02:43 | 41.42945 | -83.83441 | 38992 ft | 562 kts | 105° |
| 2026-05-07 02:43 | 41.41689 | -83.73156 | 38999 ft | 563 kts | 105° |
| 2026-05-07 02:44 | 41.40420 | -83.62841 | 38998 ft | 565 kts | 105° |
| 2026-05-07 02:44 | 41.39147 | -83.52570 | 38985 ft | 566 kts | 105° |
| 2026-05-07 02:45 | 41.37853 | -83.42212 | 39003 ft | 566 kts | 105° |
| 2026-05-07 02:45 | 41.36553 | -83.31875 | 38951 ft | 567 kts | 105° |
| 2026-05-07 02:46 | 41.35238 | -83.21511 | 39005 ft | 567 kts | 105° |
| 2026-05-07 02:46 | 41.33910 | -83.11125 | 38997 ft | 569 kts | 105° |
| 2026-05-07 02:47 | 41.32579 | -83.00787 | 38963 ft | 572 kts | 105° |
| 2026-05-07 02:47 | 41.31897 | -82.95535 | 38422 ft | 579 kts | 106° |
| 2026-05-07 02:47 | 41.31211 | -82.90256 | 37772 ft | 579 kts | 106° |
| 2026-05-07 02:48 | 41.30524 | -82.84977 | 37170 ft | 578 kts | 107° |
| 2026-05-07 02:48 | 41.29837 | -82.79717 | 36571 ft | 578 kts | 107° |
| 2026-05-07 02:48 | 41.29146 | -82.74445 | 35949 ft | 579 kts | 107° |
| 2026-05-07 02:48 | 41.28449 | -82.69159 | 35268 ft | 582 kts | 108° |
| 2026-05-07 02:49 | 41.27741 | -82.63834 | 34560 ft | 586 kts | 108° |
| 2026-05-07 02:49 | 41.27026 | -82.58471 | 33793 ft | 591 kts | 108° |
| 2026-05-07 02:49 | 41.26303 | -82.53072 | 32950 ft | 596 kts | 108° |
| 2026-05-07 02:49 | 41.25574 | -82.47634 | 32138 ft | 598 kts | 108° |
| 2026-05-07 02:50 | 41.24842 | -82.42182 | 31327 ft | 601 kts | 108° |
| 2026-05-07 02:50 | 41.24110 | -82.36719 | 30717 ft | 596 kts | 108° |
| 2026-05-07 02:50 | 41.23385 | -82.31312 | 30140 ft | 592 kts | 108° |
| 2026-05-07 02:50 | 41.22661 | -82.25949 | 29459 ft | 587 kts | 108° |
| 2026-05-07 02:51 | 41.21941 | -82.20638 | 28832 ft | 581 kts | 108° |
| 2026-05-07 02:51 | 41.21235 | -82.15458 | 28231 ft | 575 kts | 108° |
| 2026-05-07 02:51 | 41.20523 | -82.10265 | 27633 ft | 568 kts | 108° |
| 2026-05-07 02:51 | 41.19815 | -82.05132 | 27052 ft | 562 kts | 107° |
| 2026-05-07 02:52 | 41.19105 | -81.99994 | 26459 ft | 555 kts | 107° |
| 2026-05-07 02:52 | 41.18418 | -81.95049 | 25902 ft | 549 kts | 107° |
| 2026-05-07 02:52 | 41.17724 | -81.90074 | 25299 ft | 544 kts | 107° |
| 2026-05-07 02:52 | 41.17038 | -81.85164 | 24714 ft | 538 kts | 107° |
| 2026-05-07 02:53 | 41.16357 | -81.80309 | 24148 ft | 533 kts | 107° |
| 2026-05-07 02:53 | 41.15681 | -81.75504 | 23561 ft | 527 kts | 107° |
| 2026-05-07 02:53 | 41.15010 | -81.70744 | 22910 ft | 521 kts | 107° |
| 2026-05-07 02:53 | 41.14347 | -81.66051 | 22306 ft | 514 kts | 107° |
| 2026-05-07 02:54 | 41.13693 | -81.61436 | 21710 ft | 506 kts | 107° |
| 2026-05-07 02:54 | 41.13046 | -81.56880 | 21163 ft | 499 kts | 107° |
| 2026-05-07 02:54 | 41.12405 | -81.52388 | 20634 ft | 492 kts | 107° |
| 2026-05-07 02:54 | 41.11769 | -81.47954 | 20101 ft | 486 kts | 107° |
| 2026-05-07 02:55 | 41.11140 | -81.43577 | 19572 ft | 481 kts | 107° |
| 2026-05-07 02:55 | 41.10515 | -81.39240 | 19035 ft | 475 kts | 107° |
| 2026-05-07 02:55 | 41.09896 | -81.34956 | 18514 ft | 470 kts | 107° |
| 2026-05-07 02:55 | 41.09293 | -81.30788 | 17950 ft | 465 kts | 106° |
| 2026-05-07 02:56 | 41.08686 | -81.26600 | 17380 ft | 459 kts | 106° |
| 2026-05-07 02:56 | 41.08034 | -81.22504 | 16883 ft | 449 kts | 110° |
| 2026-05-07 02:56 | 41.06996 | -81.18683 | 16536 ft | 430 kts | 122° |
| 2026-05-07 02:56 | 41.05736 | -81.15150 | 16150 ft | 421 kts | 122° |
| 2026-05-07 02:57 | 41.04480 | -81.11679 | 15678 ft | 416 kts | 122° |
| 2026-05-07 02:57 | 41.03236 | -81.08236 | 15183 ft | 412 kts | 122° |
| 2026-05-07 02:57 | 41.02014 | -81.04826 | 14793 ft | 406 kts | 121° |
| 2026-05-07 02:57 | 41.00815 | -81.01457 | 14248 ft | 405 kts | 120° |
| 2026-05-07 02:58 | 40.99657 | -80.98195 | 13740 ft | 403 kts | 120° |
| 2026-05-07 02:58 | 40.98470 | -80.94841 | 13163 ft | 400 kts | 120° |
| 2026-05-07 02:58 | 40.97297 | -80.91524 | 12671 ft | 396 kts | 119° |
| 2026-05-07 02:58 | 40.96147 | -80.88267 | 12162 ft | 384 kts | 120° |
| 2026-05-07 02:59 | 40.95037 | -80.85126 | 11708 ft | 370 kts | 120° |
| 2026-05-07 02:59 | 40.93965 | -80.82100 | 11265 ft | 358 kts | 120° |
| 2026-05-07 02:59 | 40.92925 | -80.79175 | 10852 ft | 347 kts | 120° |
| 2026-05-07 02:59 | 40.91906 | -80.76316 | 10617 ft | 337 kts | 120° |
| 2026-05-07 03:00 | 40.90924 | -80.73557 | 10473 ft | 327 kts | 120° |
| 2026-05-07 03:00 | 40.89951 | -80.70836 | 10373 ft | 331 kts | 120° |
| 2026-05-07 03:00 | 40.88971 | -80.68096 | 10214 ft | 325 kts | 120° |
| 2026-05-07 03:00 | 40.88029 | -80.65459 | 10061 ft | 308 kts | 121° |
| 2026-05-07 03:01 | 40.86857 | -80.63290 | 9923 ft | 283 kts | 143° |
| 2026-05-07 03:01 | 40.85618 | -80.61267 | 9820 ft | 296 kts | 118° |
| 2026-05-07 03:01 | 40.85251 | -80.58520 | 9757 ft | 314 kts | 84° |
| 2026-05-07 03:01 | 40.85767 | -80.55712 | 9787 ft | 316 kts | 71° |
| 2026-05-07 03:02 | 40.86422 | -80.52922 | 10013 ft | 322 kts | 71° |
| 2026-05-07 03:02 | 40.87111 | -80.50029 | 10661 ft | 328 kts | 71° |
| 2026-05-07 03:02 | 40.87786 | -80.47198 | 10975 ft | 329 kts | 72° |
| 2026-05-07 03:02 | 40.88028 | -80.44199 | 11006 ft | 330 kts | 102° |
| 2026-05-07 03:03 | 40.87215 | -80.41470 | 11033 ft | 313 kts | 134° |
| 2026-05-07 03:03 | 40.85616 | -80.39726 | 11035 ft | 290 kts | 167° |
| 2026-05-07 03:03 | 40.83734 | -80.39345 | 11045 ft | 265 kts | 196° |
| 2026-05-07 03:03 | 40.81936 | -80.39764 | 11040 ft | 263 kts | 200° |
| 2026-05-07 03:04 | 40.80197 | -80.40391 | 11021 ft | 254 kts | 214° |
| 2026-05-07 03:04 | 40.78815 | -80.41732 | 11030 ft | 243 kts | 229° |
| 2026-05-07 03:04 | 40.77598 | -80.43282 | 10695 ft | 243 kts | 230° |
| 2026-05-07 03:04 | 40.76411 | -80.44857 | 10408 ft | 241 kts | 231° |
| 2026-05-07 03:05 | 40.75236 | -80.46432 | 10104 ft | 240 kts | 231° |
| 2026-05-07 03:05 | 40.74073 | -80.48006 | 9805 ft | 240 kts | 231° |
| 2026-05-07 03:05 | 40.72911 | -80.49585 | 9470 ft | 241 kts | 231° |
| 2026-05-07 03:05 | 40.71747 | -80.51180 | 9153 ft | 242 kts | 231° |
| 2026-05-07 03:06 | 40.70584 | -80.52787 | 8843 ft | 243 kts | 231° |
| 2026-05-07 03:06 | 40.69426 | -80.54414 | 8525 ft | 244 kts | 231° |
| 2026-05-07 03:06 | 40.68269 | -80.56048 | 8220 ft | 245 kts | 231° |
| 2026-05-07 03:06 | 40.66899 | -80.57405 | 7880 ft | 256 kts | 204° |
| 2026-05-07 03:07 | 40.65085 | -80.57519 | 7583 ft | 270 kts | 175° |
| 2026-05-07 03:07 | 40.63236 | -80.57066 | 7275 ft | 271 kts | 175° |
| 2026-05-07 03:07 | 40.61373 | -80.56654 | 6938 ft | 271 kts | 176° |
| 2026-05-07 03:07 | 40.59545 | -80.56310 | 6622 ft | 268 kts | 176° |
| 2026-05-07 03:08 | 40.57700 | -80.56004 | 6314 ft | 264 kts | 177° |
| 2026-05-07 03:08 | 40.55918 | -80.55725 | 5990 ft | 254 kts | 177° |
| 2026-05-07 03:08 | 40.54178 | -80.55461 | 5658 ft | 250 kts | 177° |
| 2026-05-07 03:08 | 40.52466 | -80.55204 | 5314 ft | 242 kts | 177° |
| 2026-05-07 03:09 | 40.50880 | -80.54675 | 5016 ft | 233 kts | 150° |
| 2026-05-07 03:09 | 40.49878 | -80.53042 | 5013 ft | 237 kts | 110° |
| 2026-05-07 03:09 | 40.49557 | -80.50923 | 4973 ft | 235 kts | 99° |
| 2026-05-07 03:09 | 40.49350 | -80.48776 | 4717 ft | 237 kts | 95° |
| 2026-05-07 03:10 | 40.49253 | -80.46640 | 4391 ft | 228 kts | 92° |
| 2026-05-07 03:10 | 40.49199 | -80.44641 | 4082 ft | 210 kts | 91° |
| 2026-05-07 03:10 | 40.49150 | -80.42786 | 3809 ft | 196 kts | 91° |
| 2026-05-07 03:10 | 40.49103 | -80.41074 | 3553 ft | 184 kts | 91° |
| 2026-05-07 03:11 | 40.49058 | -80.39446 | 3323 ft | 172 kts | 90° |
| 2026-05-07 03:11 | 40.49016 | -80.37926 | 3102 ft | 162 kts | 89° |
| 2026-05-07 03:11 | 40.48976 | -80.36498 | 2894 ft | 149 kts | 89° |
| 2026-05-07 03:11 | 40.48940 | -80.35162 | 2689 ft | 147 kts | 88° |
| 2026-05-07 03:12 | 40.48904 | -80.33809 | 2503 ft | 152 kts | 89° |
| 2026-05-07 03:12 | 40.48865 | -80.32404 | 2273 ft | 153 kts | 88° |
| 2026-05-07 03:12 | 40.48829 | -80.31027 | 2075 ft | 148 kts | 89° |
| 2026-05-07 03:12 | 40.48784 | -80.29674 | 1832 ft | 148 kts | 89° |
| 2026-05-07 03:13 | 40.48745 | -80.28336 | 1687 ft | 144 kts | 90° |
| 2026-05-07 03:13 | 40.48714 | -80.27013 | 1446 ft | 148 kts | 90° |
| 2026-05-07 03:13 | 40.48679 | -80.25668 | 1260 ft | 146 kts | 88° |
| 2026-05-07 03:13 | 40.48653 | -80.24391 | 1161 ft | 129 kts | 87° |
| 2026-05-07 03:14 | 40.48629 | -80.23321 | 1147 ft | 101 kts | 93° |
| 2026-05-07 03:14 | 40.48609 | -80.22616 | 1152 ft | 41 kts | 91° |
| 2026-05-07 03:14 | 40.48729 | -80.22327 | 1151 ft | 0 kts | 25° |
| 2026-05-07 03:15 | 40.48739 | -80.22325 | 1153 ft | 6 kts | 2° |
| 2026-05-07 03:15 | 40.48763 | -80.22396 | 1153 ft | 12 kts | 273° |
| 2026-05-07 03:15 | 40.48768 | -80.22505 | 1154 ft | 12 kts | 273° |
| 2026-05-07 03:15 | 40.48770 | -80.22619 | 1154 ft | 15 kts | 271° |
| 2026-05-07 03:16 | 40.48776 | -80.22801 | 1153 ft | 23 kts | 272° |
| 2026-05-07 03:16 | 40.48782 | -80.23012 | 1153 ft | 23 kts | 271° |
| 2026-05-07 03:16 | 40.48788 | -80.23239 | 1152 ft | 27 kts | 272° |
| 2026-05-07 03:16 | 40.48794 | -80.23479 | 1152 ft | 25 kts | 272° |
| 2026-05-07 03:17 | 40.48798 | -80.23698 | 1152 ft | 23 kts | 272° |
| 2026-05-07 03:17 | 40.48803 | -80.23908 | 1153 ft | 23 kts | 272° |
| 2026-05-07 03:17 | 40.48861 | -80.24005 | 1152 ft | 4 kts | 357° |
| 2026-05-07 03:17 | 40.48898 | -80.24004 | 1151 ft | 9 kts | 3° |
| 2026-05-07 03:18 | 40.48965 | -80.23999 | 1150 ft | 18 kts | 1° |
| 2026-05-07 03:18 | 40.49090 | -80.23997 | 1153 ft | 18 kts | 0° |
| 2026-05-07 03:18 | 40.49199 | -80.24017 | 1154 ft | 14 kts | 306° |
| 2026-05-07 03:18 | 40.49210 | -80.24144 | 1154 ft | 13 kts | 274° |
| 2026-05-07 03:19 | 40.49221 | -80.24216 | 1154 ft | 4 kts | 309° |
| 2026-05-07 03:19 | 40.49247 | -80.24224 | 1154 ft | 4 kts | 350° |
| 2026-05-07 03:19 | 40.49274 | -80.24234 | 1154 ft | 4 kts | 355° |
| 2026-05-07 03:19 | 40.49281 | -80.24234 | 1154 ft | 0 kts | 359° |